createdAt,value
2019-02-06T00:02:10.021Z,29.47
2019-02-06T00:04:15.557Z,30.93
2019-02-06T00:06:19.606Z,30.77
2019-02-06T00:08:23.912Z,28.17
2019-02-06T00:10:28.196Z,28.50
2019-02-06T00:12:34.068Z,31.30
2019-02-06T00:14:38.479Z,30.03
2019-02-06T00:16:45.090Z,31.00
2019-02-06T00:18:52.351Z,31.53
2019-02-06T00:20:59.125Z,29.00
2019-02-06T00:23:03.591Z,29.47
2019-02-06T00:25:07.965Z,30.90
2019-02-06T00:27:12.800Z,29.87
2019-02-06T00:29:25.470Z,30.40
2019-02-06T00:31:29.776Z,33.40
2019-02-06T00:33:36.976Z,32.17
2019-02-06T00:35:49.325Z,34.00
2019-02-06T00:37:54.716Z,35.10
2019-02-06T00:44:21.700Z,32.17
2019-02-06T00:50:56.319Z,31.10
2019-02-06T00:53:32.040Z,34.17
2019-02-06T00:55:36.893Z,32.50
2019-02-06T00:57:41.692Z,35.43
2019-02-06T00:59:58.544Z,34.07
2019-02-06T01:02:13.469Z,32.73
2019-02-06T01:04:19.441Z,34.47
2019-02-06T01:06:28.399Z,34.30
2019-02-06T01:08:34.028Z,35.10
2019-02-06T01:10:42.943Z,31.53
2019-02-06T01:12:56.065Z,32.17
2019-02-06T01:15:24.364Z,31.70
2019-02-06T01:17:53.966Z,31.43
2019-02-06T01:20:08.883Z,35.90
2019-02-06T01:22:23.663Z,30.77
2019-02-06T01:31:41.543Z,31.93
2019-02-06T01:37:04.495Z,29.77
2019-02-06T01:39:11.615Z,29.27
2019-02-06T01:41:20.588Z,31.30
2019-02-06T01:43:24.745Z,29.30
2019-02-06T01:45:28.967Z,29.87
2019-02-06T01:47:33.594Z,30.67
2019-02-06T01:49:48.968Z,32.80
2019-02-06T01:51:49.262Z,32.80
2019-02-06T01:54:01.120Z,32.60
2019-02-06T02:06:28.240Z,32.43
2019-02-06T02:09:16.987Z,30.97
2019-02-06T02:11:26.429Z,34.90
2019-02-06T02:13:33.514Z,34.20
2019-02-06T02:15:37.752Z,33.17
2019-02-06T02:17:45.026Z,34.00
2019-02-06T02:19:49.777Z,33.60
2019-02-06T02:22:04.485Z,32.50
2019-02-06T02:24:09.276Z,32.40
2019-02-06T02:40:15.371Z,31.13
2019-02-06T02:42:19.660Z,32.87
2019-02-06T02:44:26.465Z,32.40
2019-02-06T02:46:35.212Z,32.67
2019-02-06T02:48:43.440Z,32.57
2019-02-06T02:50:49.857Z,33.67
2019-02-06T02:52:55.515Z,31.43
2019-02-06T02:54:59.549Z,32.47
2019-02-06T02:58:00.379Z,30.70
2019-02-06T03:10:48.013Z,27.57
2019-02-06T03:12:52.070Z,27.60
2019-02-06T03:14:59.085Z,27.43
2019-02-06T03:17:03.550Z,27.77
2019-02-06T03:19:12.036Z,25.50
2019-02-06T03:21:20.519Z,26.60
2019-02-06T03:23:24.552Z,24.83
2019-02-06T03:25:32.982Z,27.30
2019-02-06T03:27:34.651Z,24.70
2019-02-06T03:29:41.557Z,25.23
2019-02-06T03:31:47.008Z,23.10
2019-02-06T03:33:55.892Z,22.83
2019-02-06T03:36:00.292Z,20.63
2019-02-06T03:38:07.782Z,21.10
2019-02-06T03:40:12.472Z,19.60
2019-02-06T03:42:19.204Z,20.67
2019-02-06T03:44:23.348Z,20.33
2019-02-06T03:46:27.559Z,21.80
2019-02-06T03:48:31.725Z,20.50
2019-02-06T03:50:36.377Z,17.70
2019-02-06T03:52:40.643Z,21.37
2019-02-06T03:54:47.175Z,17.97
2019-02-06T03:56:51.491Z,20.00
2019-02-06T03:58:55.976Z,18.73
2019-02-06T04:01:00.699Z,20.00
2019-02-06T04:03:05.007Z,18.10
2019-02-06T04:05:12.064Z,18.07
2019-02-06T04:07:16.179Z,17.40
2019-02-06T04:09:20.882Z,16.40
2019-02-06T04:11:30.080Z,17.70
2019-02-06T04:13:40.678Z,16.30
2019-02-06T04:15:45.238Z,17.43
2019-02-06T04:17:49.903Z,16.17
2019-02-06T04:19:56.850Z,15.10
2019-02-06T04:22:01.191Z,16.77
2019-02-06T04:24:08.590Z,16.43
2019-02-06T04:26:17.433Z,16.10
2019-02-06T04:28:24.568Z,15.63
2019-02-06T04:30:31.550Z,14.90
2019-02-06T04:32:34.886Z,14.83
2019-02-06T04:34:51.272Z,15.63
2019-02-06T04:37:06.583Z,15.77
2019-02-06T04:39:07.718Z,14.77
2019-02-06T04:41:12.501Z,16.00
2019-02-06T04:43:20.220Z,13.80
2019-02-06T04:45:27.562Z,14.40
2019-02-06T04:47:56.337Z,15.90
2019-02-06T04:50:03.895Z,12.97
2019-02-06T04:52:08.591Z,14.30
2019-02-06T04:54:24.316Z,14.40
2019-02-06T04:56:31.843Z,13.13
2019-02-06T04:58:40.925Z,14.00
2019-02-06T05:00:42.598Z,14.60
2019-02-06T05:02:50.264Z,13.40
2019-02-06T05:05:00.103Z,13.47
2019-02-06T05:07:18.645Z,13.97
2019-02-06T05:09:14.881Z,14.77
2019-02-06T05:11:19.534Z,13.87
2019-02-06T05:13:27.644Z,13.77
2019-02-06T05:15:31.974Z,13.33
2019-02-06T05:17:36.917Z,11.60
2019-02-06T05:19:43.893Z,12.10
2019-02-06T05:21:50.842Z,12.57
2019-02-06T05:24:01.908Z,12.93
2019-02-06T05:26:06.756Z,13.50
2019-02-06T05:28:10.926Z,13.60
2019-02-06T05:30:21.572Z,12.50
2019-02-06T05:32:34.762Z,13.07
2019-02-06T05:34:42.113Z,11.43
2019-02-06T05:36:51.191Z,10.10
2019-02-06T05:38:58.583Z,11.20
2019-02-06T05:41:10.259Z,10.90
2019-02-06T05:44:35.197Z,10.70
2019-02-06T05:57:17.384Z,9.50
2019-02-06T05:59:20.071Z,10.10
2019-02-06T06:01:30.248Z,11.07
2019-02-06T06:03:36.060Z,9.23
2019-02-06T06:05:40.157Z,9.13
2019-02-06T06:07:53.245Z,10.23
2019-02-06T06:10:00.159Z,10.77
2019-02-06T06:12:04.889Z,9.80
2019-02-06T06:35:35.392Z,10.80
2019-02-06T06:38:21.767Z,9.30
2019-02-06T06:40:46.984Z,10.57
2019-02-06T06:43:34.354Z,10.03
2019-02-06T07:01:11.150Z,8.57
2019-02-06T07:03:21.718Z,10.47
2019-02-06T07:11:11.153Z,9.83
2019-02-06T11:48:49.203Z,7.73
2019-02-06T13:53:37.181Z,7.00
2019-02-06T13:55:49.985Z,6.50
2019-02-06T13:58:00.318Z,7.20
2019-02-06T14:00:20.190Z,6.60
2019-02-06T14:02:32.709Z,9.10
2019-02-06T14:21:45.575Z,6.60
2019-02-06T14:24:30.606Z,6.70
2019-02-06T14:59:59.807Z,7.20
2019-02-06T15:03:15.477Z,6.90
2019-02-06T15:06:09.620Z,6.20
2019-02-06T15:09:00.195Z,6.23
2019-02-06T16:15:29.370Z,6.17
2019-02-06T16:18:33.541Z,5.87
2019-02-06T16:21:15.002Z,4.90
2019-02-06T16:24:14.037Z,6.00
2019-02-06T16:26:59.877Z,6.20
2019-02-06T16:29:16.611Z,5.33
2019-02-06T16:31:51.037Z,8.30
2019-02-06T16:34:17.436Z,6.30
2019-02-06T16:37:01.420Z,5.93
2019-02-06T16:40:03.752Z,5.50
2019-02-06T16:42:40.759Z,5.77
2019-02-06T16:45:20.530Z,6.23
2019-02-06T16:48:10.173Z,5.93
2019-02-06T16:50:55.357Z,4.87
2019-02-06T16:53:43.364Z,6.13
2019-02-06T16:56:52.698Z,5.07
2019-02-06T17:00:05.604Z,6.80
2019-02-06T17:03:02.932Z,5.90
2019-02-06T17:19:52.770Z,7.57
2019-02-06T17:23:06.689Z,6.77
2019-02-06T17:25:48.881Z,6.33
2019-02-06T17:28:44.129Z,7.80
2019-02-06T17:31:31.504Z,8.27
2019-02-06T17:34:47.051Z,7.80
2019-02-06T17:38:00.856Z,10.03
2019-02-06T17:52:23.562Z,6.07
2019-02-06T18:09:02.341Z,6.50
2019-02-06T18:15:00.198Z,7.47
2019-02-06T18:18:10.494Z,7.70
2019-02-06T18:33:24.145Z,7.20
2019-02-06T18:44:13.906Z,8.47
2019-02-06T18:46:47.501Z,6.87
2019-02-06T18:57:44.793Z,8.40
2019-02-06T19:04:34.854Z,7.53
2019-02-06T19:06:45.355Z,8.40
2019-02-06T19:09:37.752Z,7.87
2019-02-06T19:14:50.264Z,7.70
2019-02-06T19:28:21.866Z,6.77
2019-02-06T19:29:24.445Z,7.70
2019-02-06T19:31:40.633Z,7.30
2019-02-06T19:38:12.879Z,6.93
2019-02-06T19:44:07.184Z,8.03
2019-02-06T19:46:45.725Z,6.30
2019-02-06T19:49:12.596Z,7.60
2019-02-06T19:51:26.082Z,7.17
2019-02-06T19:53:30.521Z,6.63
2019-02-06T19:58:32.893Z,7.57
2019-02-06T20:01:14.557Z,6.57
2019-02-06T20:03:48.688Z,6.97
2019-02-06T20:06:46.508Z,7.03
2019-02-06T20:08:59.893Z,7.27
2019-02-06T20:13:49.141Z,7.00
2019-02-06T20:15:59.581Z,6.47
2019-02-06T20:18:29.684Z,7.10
2019-02-06T20:20:50.519Z,6.17
2019-02-06T20:27:01.161Z,6.67
2019-02-06T20:32:48.065Z,5.60
2019-02-06T20:46:04.270Z,6.97
2019-02-06T20:49:21.489Z,6.40
2019-02-06T20:52:00.339Z,6.20
2019-02-06T20:54:38.389Z,6.50
2019-02-06T20:56:31.689Z,8.07
2019-02-06T21:02:46.466Z,6.43
2019-02-06T21:06:22.613Z,6.50
2019-02-06T21:29:01.105Z,6.97
2019-02-06T21:38:19.217Z,7.00
2019-02-06T21:44:52.384Z,7.17
2019-02-06T21:47:40.148Z,7.00
2019-02-06T21:50:26.086Z,8.20
2019-02-06T21:53:46.737Z,8.90
2019-02-06T21:59:28.596Z,7.97
2019-02-06T22:09:31.001Z,8.90
2019-02-06T22:11:40.464Z,8.10
2019-02-06T22:17:25.707Z,8.00
2019-02-06T22:20:27.273Z,8.40
2019-02-06T22:22:49.026Z,8.53
2019-02-06T22:25:10.904Z,8.40
2019-02-06T22:27:14.883Z,7.60
2019-02-06T22:30:03.463Z,8.13
2019-02-06T22:32:57.823Z,7.57
2019-02-06T22:35:02.289Z,7.70
2019-02-06T22:37:06.273Z,6.83
2019-02-06T22:39:13.638Z,7.67
2019-02-06T22:41:59.155Z,8.50
2019-02-06T22:44:06.568Z,7.97
2019-02-06T22:46:08.990Z,8.03
2019-02-06T22:48:12.908Z,7.60
2019-02-06T22:50:20.240Z,9.13
2019-02-06T22:52:24.295Z,8.50
2019-02-06T23:02:40.810Z,8.43
2019-02-06T23:10:49.002Z,8.97
2019-02-06T23:13:05.452Z,7.60
2019-02-06T23:15:08.615Z,8.30
2019-02-06T23:17:12.928Z,9.43
2019-02-06T23:19:17.006Z,8.70
2019-02-06T23:21:21.061Z,7.23
2019-02-06T23:23:25.349Z,9.20
2019-02-06T23:25:29.798Z,8.73
2019-02-06T23:27:33.825Z,8.47
2019-02-06T23:31:49.029Z,8.50
2019-02-06T23:33:54.196Z,7.67
2019-02-06T23:35:58.523Z,9.17
2019-02-06T23:38:02.978Z,8.83
2019-02-06T23:51:55.332Z,9.80
